Time;durP1;ratioP1;P1;durP2;ratioP2;P2;SDS_P1;SDS_P2;PMS_P1;PMS_P2;Temp;Humidity;BMP_temperature;BMP_pressure;BME280_temperature;BME280_humidity;BME280_pressure;Samples;Min_cycle;Max_cycle;Signal;HPM_P1;HPM_P2
2022/07/30 00:01:51;;;;;;;6.63;5.60;;;;;;;25.70;41.91;99340.06;5073044;28;20111;-71
2022/07/30 00:04:16;;;;;;;6.00;5.07;;;;;;;25.74;41.51;99334.25;5073017;28;20517;-71
2022/07/30 00:06:42;;;;;;;6.20;5.47;;;;;;;25.71;41.33;99324.50;5073176;28;20035;-71
2022/07/30 00:09:08;;;;;;;7.75;5.75;;;;;;;25.65;41.42;99329.13;5072840;28;20028;-71
2022/07/30 00:11:33;;;;;;;10.07;5.90;;;;;;;25.60;41.83;99323.91;5072935;28;20036;-71
2022/07/30 00:13:59;;;;;;;8.55;5.85;;;;;;;25.49;42.47;99330.69;5072845;28;20033;-71
2022/07/30 00:16:24;;;;;;;11.63;5.88;;;;;;;25.13;43.08;99327.72;5071463;28;20020;-71
2022/07/30 00:18:50;;;;;;;8.43;5.82;;;;;;;25.19;43.29;99320.22;5072770;28;20029;-71
2022/07/30 00:21:15;;;;;;;9.00;5.53;;;;;;;25.41;42.61;99336.97;5072628;28;20512;-71
2022/07/30 00:23:41;;;;;;;6.97;6.28;;;;;;;25.13;42.81;99325.66;5072772;28;20062;-71
2022/07/30 00:26:06;;;;;;;8.80;6.28;;;;;;;25.14;43.24;99315.03;5072489;28;20035;-71
2022/07/30 00:28:32;;;;;;;8.38;6.18;;;;;;;25.13;43.42;99324.88;5072723;28;20517;-71
2022/07/30 00:30:57;;;;;;;12.43;5.80;;;;;;;24.99;44.04;99326.75;5072489;28;20024;-71
2022/07/30 00:33:23;;;;;;;9.48;6.28;;;;;;;24.41;45.33;99316.31;5071242;28;20059;-71
2022/07/30 00:35:48;;;;;;;8.85;6.70;;;;;;;24.20;45.95;99326.84;5072295;28;20029;-71
2022/07/30 00:38:14;;;;;;;9.88;7.30;;;;;;;23.97;46.36;99321.88;5072388;28;20407;-71
2022/07/30 00:40:39;;;;;;;12.02;6.95;;;;;;;23.78;47.16;99324.19;5070887;28;20118;-71
2022/07/30 00:43:05;;;;;;;12.20;7.20;;;;;;;23.93;46.68;99323.97;5072280;28;20089;-71
2022/07/30 00:45:31;;;;;;;8.15;6.25;;;;;;;23.70;47.71;99323.47;5072154;28;20471;-71
2022/07/30 00:48:00;;;;;;;14.98;7.28;;;;;;;23.31;48.65;99321.94;5072272;28;20036;-71
2022/07/30 00:50:26;;;;;;;10.20;6.93;;;;;;;23.46;48.14;99313.22;5072028;28;20414;-71
2022/07/30 00:52:51;;;;;;;11.10;7.43;;;;;;;23.80;47.44;99313.13;5070862;28;20031;-71
2022/07/30 00:55:17;;;;;;;8.35;7.13;;;;;;;24.04;47.05;99312.44;5071942;28;20488;-71
2022/07/30 00:57:43;;;;;;;9.85;6.82;;;;;;;24.05;47.02;99311.19;5071853;28;20143;-71
2022/07/30 01:00:12;;;;;;;10.30;6.68;;;;;;;23.70;47.68;99314.09;5071887;28;20053;-71
2022/07/30 01:02:38;;;;;;;9.18;7.10;;;;;;;23.84;47.54;99307.38;5071983;28;20055;-71
2022/07/30 01:05:04;;;;;;;9.70;6.75;;;;;;;23.60;48.06;99310.16;5070468;28;20079;-71
2022/07/30 01:07:30;;;;;;;11.57;7.40;;;;;;;23.72;48.14;99310.81;5070926;28;20024;-71
2022/07/30 01:09:55;;;;;;;8.27;6.88;;;;;;;23.96;47.45;99314.56;5071692;28;20150;-71
2022/07/30 01:12:24;;;;;;;13.73;6.72;;;;;;;23.68;47.95;99308.81;5071721;28;20020;-71
2022/07/30 01:14:51;;;;;;;8.05;7.18;;;;;;;23.69;48.10;99304.72;5071536;28;20052;-71
2022/07/30 01:17:17;;;;;;;10.10;6.75;;;;;;;23.91;47.47;99301.56;5071636;28;20060;-71
2022/07/30 01:19:54;;;;;;;10.75;6.45;;;;;;;23.92;47.58;99296.66;5071550;28;20029;-71
2022/07/30 01:22:28;;;;;;;11.77;6.88;;;;;;;23.88;47.50;99310.97;5071468;28;20475;-71
2022/07/30 01:25:16;;;;;;;15.05;7.20;;;;;;;23.80;47.55;99310.28;5070034;28;20044;-71
2022/07/30 01:27:51;;;;;;;11.45;7.25;;;;;;;23.58;48.55;99312.63;5071442;28;20029;-71
2022/07/30 01:30:21;;;;;;;19.35;9.00;;;;;;;22.25;52.07;99309.91;5071307;28;20509;-71
2022/07/30 01:32:50;;;;;;;20.73;11.32;;;;;;;22.39;52.05;99312.66;5071488;28;20021;-71
2022/07/30 01:35:17;;;;;;;22.17;15.23;;;;;;;22.97;50.50;99317.81;5071257;28;20025;-71
2022/07/30 01:37:44;;;;;;;64.43;46.78;;;;;;;22.91;50.54;99315.84;5070016;28;20056;-71
2022/07/30 01:40:11;;;;;;;51.40;35.40;;;;;;;22.44;51.83;99311.38;5071121;28;20107;-71
2022/07/30 01:42:38;;;;;;;35.58;26.90;;;;;;;22.79;50.95;99306.59;5071230;28;20048;-71
2022/07/30 01:45:06;;;;;;;39.78;32.90;;;;;;;23.03;50.22;99306.75;5069991;28;20055;-71
2022/07/30 01:47:33;;;;;;;42.72;28.83;;;;;;;22.99;50.48;99308.84;5071306;28;20509;-71
2022/07/30 01:50:00;;;;;;;35.42;26.38;;;;;;;23.10;49.87;99298.13;5071203;28;20025;-71
2022/07/30 01:52:29;;;;;;;36.85;26.65;;;;;;;22.96;50.21;99304.00;5071028;28;20024;-71
2022/07/30 01:54:57;;;;;;;34.60;26.97;;;;;;;23.00;50.36;99307.59;5071205;28;20027;-71
2022/07/30 01:57:25;;;;;;;36.30;26.02;;;;;;;22.97;50.49;99300.69;5069708;28;20045;-71
2022/07/30 01:59:53;;;;;;;31.60;21.40;;;;;;;22.90;50.69;99302.81;5071097;28;20031;-71
2022/07/30 02:02:19;;;;;;;16.08;11.38;;;;;;;22.26;51.51;99300.94;5069643;28;20464;-71
2022/07/30 02:04:45;;;;;;;11.45;9.65;;;;;;;21.76;52.54;99278.53;5069757;28;20021;-71
2022/07/30 02:07:21;;;;;;;11.85;8.90;;;;;;;21.87;52.44;99304.91;5070831;28;20091;-71
2022/07/30 02:10:16;;;;;;;15.90;9.10;;;;;;;21.59;53.33;99301.78;5071055;28;20021;-71
2022/07/30 02:12:52;;;;;;;11.13;8.38;;;;;;;21.39;53.93;99295.78;5068457;28;20031;-71
2022/07/30 02:15:36;;;;;;;15.85;9.10;;;;;;;21.55;53.69;99303.00;5071014;28;20090;-71
2022/07/30 02:18:26;;;;;;;22.58;9.35;;;;;;;21.83;53.00;99296.38;5071147;28;20077;-71
2022/07/30 02:20:59;;;;;;;10.75;8.55;;;;;;;22.14;52.32;99295.75;5074010;28;20053;-71
2022/07/30 02:23:27;;;;;;;10.88;8.48;;;;;;;22.54;51.05;99304.78;5074588;28;20483;-71
2022/07/30 02:25:54;;;;;;;11.75;8.48;;;;;;;22.43;50.99;99295.50;5073596;28;20028;-71
2022/07/30 02:28:21;;;;;;;11.32;8.35;;;;;;;22.49;51.00;99301.59;5074979;28;20024;-71
2022/07/30 02:30:53;;;;;;;10.57;8.48;;;;;;;22.66;51.03;99294.09;5074737;28;20475;-71
2022/07/30 02:33:22;;;;;;;11.25;8.77;;;;;;;22.58;50.83;99304.78;5073437;28;20407;-71
2022/07/30 02:35:50;;;;;;;14.20;8.32;;;;;;;22.74;50.82;99301.34;5074601;28;20108;-71
2022/07/30 02:38:18;;;;;;;15.10;7.90;;;;;;;22.67;51.21;99296.53;5074747;28;20031;-71
2022/07/30 02:40:44;;;;;;;14.00;7.88;;;;;;;22.70;51.51;99292.84;5073254;28;20021;-71
2022/07/30 02:43:10;;;;;;;12.02;8.32;;;;;;;22.81;51.21;99298.44;5073117;28;20107;-71
2022/07/30 02:45:37;;;;;;;13.90;8.63;;;;;;;22.63;51.77;99289.25;5074551;28;20017;-71
2022/07/30 02:48:07;;;;;;;13.48;8.75;;;;;;;22.60;51.69;99293.75;5074491;28;20024;-71
2022/07/30 02:50:34;;;;;;;15.98;10.23;;;;;;;22.66;51.09;99294.94;5074454;28;20406;-71
2022/07/30 02:53:02;;;;;;;13.20;9.30;;;;;;;22.59;51.15;99294.97;5074380;28;20035;-71
2022/07/30 02:55:31;;;;;;;19.58;11.20;;;;;;;22.50;51.69;99289.78;5074313;28;20028;-71
2022/07/30 02:57:58;;;;;;;20.00;10.60;;;;;;;22.29;52.61;99290.75;5074057;28;20527;-71
2022/07/30 03:00:25;;;;;;;18.92;10.23;;;;;;;22.40;52.13;99284.97;5074175;28;20024;-71
2022/07/30 03:02:52;;;;;;;31.25;11.73;;;;;;;22.56;51.64;99276.72;5074183;28;20108;-71
2022/07/30 03:05:19;;;;;;;28.80;11.43;;;;;;;22.51;52.21;99273.50;5074164;28;20490;-71
2022/07/30 03:07:45;;;;;;;28.38;9.55;;;;;;;22.48;52.34;99263.75;5073990;28;20108;-71
2022/07/30 03:10:12;;;;;;;14.68;10.25;;;;;;;22.33;52.66;99270.78;5074005;28;20017;-71
2022/07/30 03:12:39;;;;;;;18.60;11.43;;;;;;;22.36;52.67;99278.50;5072596;28;20021;-71
2022/07/30 03:15:05;;;;;;;16.58;10.98;;;;;;;21.96;53.47;99282.47;5072890;28;20016;-71
2022/07/30 03:17:37;;;;;;;19.83;10.80;;;;;;;22.10;53.75;99281.53;5073950;28;20412;-71
2022/07/30 03:20:06;;;;;;;28.67;10.55;;;;;;;22.22;53.44;99276.56;5074008;28;20082;-71
2022/07/30 03:22:38;;;;;;;25.75;12.07;;;;;;;22.04;53.69;99276.72;5073517;28;20025;-71
2022/07/30 03:25:06;;;;;;;22.17;10.13;;;;;;;22.04;53.68;99285.25;5072519;28;20036;-71
2022/07/30 03:27:33;;;;;;;21.58;12.05;;;;;;;22.15;53.09;99291.69;5072492;28;20027;-71
2022/07/30 03:30:01;;;;;;;14.60;10.43;;;;;;;22.16;52.98;99284.75;5072906;28;20035;-71
2022/07/30 03:32:27;;;;;;;21.48;10.15;;;;;;;22.13;52.98;99297.00;5073514;28;20380;-71
2022/07/30 03:34:53;;;;;;;40.63;11.57;;;;;;;22.16;53.35;99294.13;5073558;28;20103;-71
2022/07/30 03:37:19;;;;;;;17.75;9.82;;;;;;;21.74;53.49;99302.53;5073589;28;20099;-71
2022/07/30 03:39:46;;;;;;;15.65;9.13;;;;;;;21.36;54.68;99302.31;5072265;28;20047;-71
2022/07/30 03:42:12;;;;;;;15.48;8.50;;;;;;;20.67;56.23;99293.94;5071935;28;20105;-71
2022/07/30 03:44:38;;;;;;;11.55;8.77;;;;;;;20.73;56.47;99306.53;5066520;28;20060;-71
2022/07/30 03:47:05;;;;;;;21.10;8.80;;;;;;;20.95;55.83;99294.31;5065350;28;20470;-71
2022/07/30 03:49:32;;;;;;;17.67;9.20;;;;;;;20.74;56.41;99298.78;5052133;28;20115;-71
2022/07/30 03:51:58;;;;;;;20.52;8.32;;;;;;;20.85;56.20;99293.94;5053148;28;20020;-71
2022/07/30 03:54:24;;;;;;;11.32;8.38;;;;;;;20.75;56.32;99303.25;5053268;28;20033;-71
2022/07/30 03:56:50;;;;;;;14.02;8.45;;;;;;;20.27;57.83;99302.50;5051597;28;20110;-71
2022/07/30 03:59:15;;;;;;;15.50;8.95;;;;;;;20.02;58.70;99297.59;5057420;28;20045;-71
2022/07/30 04:01:41;;;;;;;18.20;10.25;;;;;;;20.20;58.37;99303.28;5073169;28;20020;-71
2022/07/30 04:04:08;;;;;;;12.65;9.70;;;;;;;20.33;58.00;99300.88;5060022;28;20094;-71
2022/07/30 04:06:41;;;;;;;16.88;9.10;;;;;;;20.14;58.69;99306.94;5051835;28;20086;-72
2022/07/30 04:09:09;;;;;;;21.05;9.88;;;;;;;20.16;59.04;99313.06;5052903;28;20036;-72
2022/07/30 04:11:35;;;;;;;14.98;10.13;;;;;;;20.32;58.26;99310.63;5051730;28;20044;-72
2022/07/30 04:14:01;;;;;;;16.80;9.55;;;;;;;20.35;58.46;99314.69;5052865;28;20025;-72
2022/07/30 04:16:43;;;;;;;13.43;9.50;;;;;;;20.39;58.61;99317.50;5052849;28;20051;-72
2022/07/30 04:19:15;;;;;;;20.30;10.93;;;;;;;20.28;59.01;99321.16;5062828;28;20028;-74
2022/07/30 04:21:41;;;;;;;17.90;10.43;;;;;;;20.25;59.25;99316.28;5070784;28;20071;-71
2022/07/30 04:24:09;;;;;;;13.60;10.43;;;;;;;19.99;60.31;99323.19;5072067;28;20024;-71
2022/07/30 04:26:36;;;;;;;19.17;10.68;;;;;;;20.32;59.69;99326.81;5072728;28;20410;-72
2022/07/30 04:29:06;;;;;;;17.42;10.18;;;;;;;20.67;58.49;99330.06;5072636;28;20021;-72
2022/07/30 04:31:35;;;;;;;12.60;9.60;;;;;;;20.51;59.29;99322.75;5072654;28;20055;-72
2022/07/30 04:34:04;;;;;;;14.38;9.52;;;;;;;20.76;58.42;99327.63;5072397;28;20032;-72
2022/07/30 04:36:31;;;;;;;14.68;9.52;;;;;;;20.81;58.26;99324.41;5071191;28;20028;-72
2022/07/30 04:38:58;;;;;;;12.80;9.85;;;;;;;21.03;57.67;99322.31;5072366;28;20033;-72
2022/07/30 04:41:23;;;;;;;11.88;9.32;;;;;;;21.04;57.57;99326.78;5070834;28;20392;-72
2022/07/30 04:43:50;;;;;;;13.00;8.90;;;;;;;21.12;57.35;99324.75;5072080;28;20028;-72
2022/07/30 04:46:15;;;;;;;10.55;9.35;;;;;;;21.22;57.62;99325.91;5071874;28;20031;-72
2022/07/30 04:48:41;;;;;;;16.02;10.20;;;;;;;21.43;56.93;99319.31;5071971;28;20028;-72
2022/07/30 04:51:11;;;;;;;22.10;9.93;;;;;;;21.55;57.09;99312.38;5072224;28;20027;-72
2022/07/30 04:53:37;;;;;;;;;;;;;;;21.78;56.81;99324.47;5072230;28;20040;-72
2022/07/30 04:56:03;;;;;;;19.75;10.85;;;;;;;22.05;55.98;99318.19;5071969;28;20402;-72
2022/07/30 04:58:30;;;;;;;17.75;10.23;;;;;;;22.21;55.18;99311.97;5070673;28;20067;-72
2022/07/30 05:00:58;;;;;;;23.17;11.27;;;;;;;22.42;55.04;99308.97;5071898;28;20165;-72
2022/07/30 05:03:24;;;;;;;18.05;10.32;;;;;;;22.56;53.79;99315.78;5071805;28;20032;-72
2022/07/30 05:05:51;;;;;;;21.40;10.07;;;;;;;22.21;54.05;99307.09;5070465;28;20070;-72
2022/07/30 05:08:17;;;;;;;26.05;9.00;;;;;;;22.48;53.99;99314.19;5070486;28;20044;-72
2022/07/30 05:10:43;;;;;;;23.40;9.90;;;;;;;22.69;52.91;99311.19;5070560;28;20083;-72
2022/07/30 05:13:13;;;;;;;16.77;8.75;;;;;;;22.57;52.97;99314.56;5071806;28;20566;-72
2022/07/30 05:15:38;;;;;;;16.17;8.63;;;;;;;22.60;52.81;99312.91;5070372;28;20400;-72
2022/07/30 05:18:04;;;;;;;20.25;8.90;;;;;;;22.82;52.72;99305.75;5071620;28;20059;-72
2022/07/30 05:20:30;;;;;;;31.75;10.00;;;;;;;22.86;52.40;99312.22;5070261;28;20032;-72
2022/07/30 05:22:55;;;;;;;16.85;8.27;;;;;;;23.01;51.27;99314.91;5071538;28;20029;-72
2022/07/30 05:25:21;;;;;;;15.02;7.38;;;;;;;23.21;50.74;99315.09;5071464;28;20020;-72
2022/07/30 05:27:46;;;;;;;13.95;7.60;;;;;;;23.26;50.70;99299.56;5071436;28;20104;-72
2022/07/30 05:30:12;;;;;;;24.33;8.07;;;;;;;23.29;49.92;99301.59;5070051;28;20106;-72
2022/07/30 05:32:37;;;;;;;18.48;8.75;;;;;;;23.38;50.21;99299.03;5071404;28;20033;-71
2022/07/30 05:35:03;;;;;;;17.50;7.82;;;;;;;23.68;49.62;99305.97;5071340;28;20093;-71
2022/07/30 05:37:29;;;;;;;13.13;7.75;;;;;;;23.76;49.23;99305.84;5071293;28;20098;-73
2022/07/30 05:39:54;;;;;;;10.52;7.65;;;;;;;23.86;49.24;99304.09;5070547;28;20091;-72
2022/07/30 05:42:19;;;;;;;13.35;8.02;;;;;;;24.00;48.89;99297.34;5071798;28;20078;-72
2022/07/30 05:44:45;;;;;;;13.10;7.93;;;;;;;23.98;49.42;99317.78;5071768;28;20020;-72
2022/07/30 05:47:10;;;;;;;13.30;7.35;;;;;;;24.02;49.06;99306.31;5070415;28;20487;-72
2022/07/30 05:49:36;;;;;;;13.77;8.10;;;;;;;23.95;48.54;99310.88;5070317;28;20031;-72
2022/07/30 05:52:01;;;;;;;17.92;8.30;;;;;;;24.15;48.92;99313.06;5069700;28;20020;-72
2022/07/30 05:54:27;;;;;;;17.45;8.55;;;;;;;24.36;47.57;99305.38;5069768;28;20085;-72
2022/07/30 05:56:52;;;;;;;14.18;7.38;;;;;;;24.46;47.76;99295.00;5069524;28;20487;-72
2022/07/30 05:59:19;;;;;;;9.52;6.75;;;;;;;24.30;47.38;99307.13;5069600;28;20048;-72
2022/07/30 06:01:44;;;;;;;21.85;7.70;;;;;;;24.06;48.05;99302.16;5071004;28;20025;-72
2022/07/30 06:04:10;;;;;;;9.32;6.40;;;;;;;24.32;47.24;99299.75;5070941;28;20028;-72
2022/07/30 06:06:35;;;;;;;13.02;6.72;;;;;;;24.51;47.52;99301.03;5071071;28;20035;-72
2022/07/30 06:09:01;;;;;;;9.68;6.40;;;;;;;24.49;47.40;99294.94;5071033;28;20029;-72
2022/07/30 06:11:26;;;;;;;13.55;7.25;;;;;;;24.63;47.29;99293.09;5070958;28;20016;-72
2022/07/30 06:13:52;;;;;;;14.27;7.22;;;;;;;24.85;46.73;99301.28;5070863;28;20076;-72
2022/07/30 06:16:17;;;;;;;10.38;7.40;;;;;;;24.85;47.01;99295.53;5069691;28;20086;-71
2022/07/30 06:18:43;;;;;;;11.73;7.70;;;;;;;24.95;47.05;99303.13;5069610;28;20036;-71
2022/07/30 06:21:08;;;;;;;11.38;7.30;;;;;;;24.91;47.32;99313.84;5070831;28;20392;-71
2022/07/30 06:23:34;;;;;;;11.35;7.53;;;;;;;25.07;47.50;99316.78;5070928;28;20029;-71
2022/07/30 06:25:59;;;;;;;15.45;8.77;;;;;;;25.13;46.56;99316.28;5070743;28;20024;-71
2022/07/30 06:28:25;;;;;;;11.68;7.95;;;;;;;24.88;45.96;99314.72;5070872;28;20028;-71
2022/07/30 06:30:50;;;;;;;11.50;7.60;;;;;;;24.76;46.44;99316.94;5069345;28;20036;-71
2022/07/30 06:33:15;;;;;;;13.38;8.70;;;;;;;25.05;46.49;99316.41;5070880;28;20028;-71
2022/07/30 06:35:41;;;;;;;12.50;8.23;;;;;;;25.11;46.02;99318.78;5070782;28;20055;-71
2022/07/30 06:38:07;;;;;;;12.57;7.95;;;;;;;25.35;45.33;99322.38;5070763;28;20414;-71
2022/07/30 06:40:32;;;;;;;9.00;7.15;;;;;;;25.60;44.98;99318.19;5070569;28;20024;-71
2022/07/30 06:42:58;;;;;;;8.57;7.75;;;;;;;25.33;45.73;99310.56;5070695;28;20479;-71
2022/07/30 06:45:23;;;;;;;13.27;7.88;;;;;;;25.65;45.13;99298.44;5070626;28;20491;-71
2022/07/30 06:47:49;;;;;;;11.23;8.15;;;;;;;25.88;44.89;99293.81;5070656;28;20409;-71
2022/07/30 06:50:14;;;;;;;7.90;7.00;;;;;;;26.15;44.55;99287.03;5069212;28;20033;-72
2022/07/30 06:52:40;;;;;;;10.32;7.35;;;;;;;26.44;43.48;99286.38;5070701;28;20074;-72
2022/07/30 06:55:05;;;;;;;11.82;7.18;;;;;;;26.63;42.85;99284.63;5069158;28;20028;-72
2022/07/30 06:57:31;;;;;;;18.92;8.75;;;;;;;26.97;43.06;99288.25;5070476;28;20131;-72
2022/07/30 06:59:56;;;;;;;17.98;7.60;;;;;;;27.08;41.85;99281.41;5068418;28;20025;-72
2022/07/30 07:02:22;;;;;;;13.20;7.55;;;;;;;26.97;41.69;99288.25;5070293;28;20031;-71
2022/07/30 07:04:47;;;;;;;136.70;13.95;;;;;;;27.34;41.54;99285.19;5070962;28;20028;-71
2022/07/30 07:07:13;;;;;;;10.02;6.90;;;;;;;27.40;40.97;99288.28;5073165;28;20036;-71
2022/07/30 07:09:39;;;;;;;157.88;20.35;;;;;;;27.65;42.10;99281.00;5061506;28;20040;-71
2022/07/30 07:12:05;;;;;;;64.07;12.07;;;;;;;27.93;41.18;99279.28;5053719;28;20036;-71
2022/07/30 07:14:30;;;;;;;8.13;7.15;;;;;;;27.97;40.64;99273.41;5054515;28;20025;-72
2022/07/30 07:16:55;;;;;;;23.52;9.38;;;;;;;28.00;40.20;99266.75;5053215;28;20067;-72
2022/07/30 07:19:21;;;;;;;19.77;8.48;;;;;;;28.00;40.54;99267.56;5058042;28;20028;-72
2022/07/30 07:21:47;;;;;;;21.95;8.95;;;;;;;28.07;40.21;99266.50;5060454;28;20053;-71
2022/07/30 07:24:12;;;;;;;13.48;7.63;;;;;;;28.39;39.38;99283.97;5054316;28;20036;-71
2022/07/30 07:26:38;;;;;;;23.95;7.63;;;;;;;28.54;39.35;99270.72;5061003;28;20032;-72
2022/07/30 07:29:03;;;;;;;12.77;7.30;;;;;;;28.75;38.63;99276.19;5062023;28;20037;-71
2022/07/30 07:31:29;;;;;;;28.48;8.30;;;;;;;28.69;38.95;99261.59;5054433;28;20025;-71
2022/07/30 07:33:54;;;;;;;7.60;6.93;;;;;;;28.80;38.36;99269.81;5054387;28;20078;-71
2022/07/30 07:36:20;;;;;;;13.43;7.35;;;;;;;27.80;39.69;99272.72;5054025;28;20108;-71
2022/07/30 07:38:46;;;;;;;10.50;6.90;;;;;;;28.39;39.71;99275.34;5052982;28;20112;-71
2022/07/30 07:41:11;;;;;;;11.50;7.32;;;;;;;28.58;38.50;99282.91;5052386;28;20111;-71
2022/07/30 07:43:37;;;;;;;13.13;7.13;;;;;;;28.33;38.91;99277.22;5052291;28;20031;-71
2022/07/30 07:46:03;;;;;;;14.13;7.47;;;;;;;28.22;39.09;99271.81;5073465;28;20089;-71
2022/07/30 07:48:28;;;;;;;14.10;7.40;;;;;;;28.40;38.06;99268.31;5072203;28;20451;-71
2022/07/30 07:50:54;;;;;;;13.05;7.68;;;;;;;28.76;38.34;99261.31;5072018;28;20063;-71
2022/07/30 07:53:19;;;;;;;28.67;7.45;;;;;;;28.90;38.24;99262.91;5072107;28;20083;-73
2022/07/30 07:55:45;;;;;;;14.70;7.18;;;;;;;29.04;41.29;99260.78;5073205;28;20028;-72
2022/07/30 07:58:12;;;;;;;9.80;6.70;;;;;;;29.24;42.24;99251.78;5073223;28;20419;-73
2022/07/30 08:00:40;;;;;;;16.65;7.82;;;;;;;29.38;37.01;99257.03;5069120;28;20033;-74
2022/07/30 08:03:06;;;;;;;6.75;6.05;;;;;;;29.06;38.82;99256.16;5063077;28;20028;-71
2022/07/30 08:05:31;;;;;;;12.25;6.80;;;;;;;29.40;37.66;99251.59;5073822;28;20021;-72
2022/07/30 08:07:57;;;;;;;12.20;7.22;;;;;;;29.64;39.21;99241.63;5061348;28;20025;-71
2022/07/30 08:10:23;;;;;;;7.95;6.72;;;;;;;29.55;36.42;99260.47;5053704;28;20069;-70
2022/07/30 08:12:49;;;;;;;7.60;6.78;;;;;;;29.36;36.85;99258.75;5053569;28;20028;-72
2022/07/30 08:15:14;;;;;;;16.60;8.02;;;;;;;29.46;38.33;99246.03;5052373;28;20036;-74
2022/07/30 08:17:41;;;;;;;9.10;7.05;;;;;;;29.54;36.72;99253.13;5053053;28;20013;-73
2022/07/30 08:20:07;;;;;;;11.20;6.50;;;;;;;29.97;35.74;99253.44;5053179;28;20017;-72
2022/07/30 08:22:33;;;;;;;10.43;6.07;;;;;;;29.99;35.55;99253.00;5053076;28;20033;-73
2022/07/30 08:24:59;;;;;;;9.23;6.47;;;;;;;30.01;34.97;99246.75;5052771;28;20032;-72
2022/07/30 08:27:25;;;;;;;10.75;6.05;;;;;;;30.07;35.09;99245.69;5053231;28;20476;-72
2022/07/30 08:29:50;;;;;;;10.27;6.05;;;;;;;30.22;33.81;99242.19;5052001;28;20020;-72
2022/07/30 08:32:16;;;;;;;20.98;7.07;;;;;;;30.36;33.91;99241.56;5053201;28;20028;-72
2022/07/30 08:34:41;;;;;;;9.63;6.30;;;;;;;30.44;34.27;99241.28;5053110;28;20073;-71
2022/07/30 08:37:07;;;;;;;8.10;6.03;;;;;;;30.43;34.60;99237.56;5053020;28;20090;-72
2022/07/30 08:39:32;;;;;;;16.10;6.90;;;;;;;30.47;34.81;99232.47;5053242;28;20024;-73
2022/07/30 08:41:59;;;;;;;18.33;5.80;;;;;;;30.63;34.51;99230.56;5052795;28;20029;-70
2022/07/30 08:44:26;;;;;;;11.80;6.25;;;;;;;30.83;33.46;99238.75;5052799;28;20020;-70
2022/07/30 08:46:55;;;;;;;9.43;5.95;;;;;;;30.80;34.62;99242.59;5066242;28;20021;-72
2022/07/30 08:49:22;;;;;;;7.88;5.60;;;;;;;30.89;33.01;99231.06;5071517;28;20115;-72
2022/07/30 08:51:49;;;;;;;7.57;5.80;;;;;;;30.89;32.41;99231.06;5071419;28;20031;-74
2022/07/30 08:54:15;;;;;;;8.77;5.85;;;;;;;30.87;33.24;99218.38;5072782;28;20021;-73
2022/07/30 08:56:42;;;;;;;8.77;6.03;;;;;;;30.95;32.36;99211.81;5072710;28;20021;-74
2022/07/30 08:59:07;;;;;;;9.38;5.78;;;;;;;31.10;33.17;99206.16;5072608;28;20040;-73
2022/07/30 09:01:33;;;;;;;8.20;5.85;;;;;;;31.21;32.90;99210.66;5071276;28;20082;-70
2022/07/30 09:03:58;;;;;;;8.85;5.53;;;;;;;31.34;32.32;99207.56;5072612;28;20033;-73
2022/07/30 09:06:24;;;;;;;9.38;5.95;;;;;;;31.23;32.09;99190.75;5072429;28;20028;-71
2022/07/30 09:08:49;;;;;;;11.60;5.95;;;;;;;31.16;32.72;99191.88;5072467;28;20073;-71
2022/07/30 09:11:15;;;;;;;10.50;6.30;;;;;;;31.34;32.12;99188.16;5069454;28;20017;-71
2022/07/30 09:13:41;;;;;;;7.40;5.68;;;;;;;31.44;30.99;99188.16;5070011;28;20029;-71
2022/07/30 09:16:17;;;;;;;5.63;5.10;;;;;;;31.54;30.45;99191.78;5069545;28;20036;-73
2022/07/30 09:18:43;;;;;;;9.52;4.95;;;;;;;31.44;28.80;99186.03;5058116;28;20079;-72
2022/07/30 09:21:27;;;;;;;6.40;5.70;;;;;;;31.49;30.17;99184.56;5053531;28;20029;-71
2022/07/30 09:24:04;;;;;;;13.73;6.80;;;;;;;31.69;30.37;99181.13;5049531;28;20029;-73
2022/07/30 09:26:33;;;;;;;12.35;6.47;;;;;;;31.77;30.73;99176.59;5049616;28;20060;-72
2022/07/30 09:29:16;;;;;;;13.35;5.60;;;;;;;31.97;29.03;99183.88;5048909;28;20451;-72
2022/07/30 09:31:55;;;;;;;8.38;5.75;;;;;;;32.03;29.87;99181.94;5049526;28;20036;-72
2022/07/30 09:34:29;;;;;;;13.27;5.63;;;;;;;32.10;29.52;99179.94;5049659;28;20103;-73
2022/07/30 09:36:57;;;;;;;14.65;6.10;;;;;;;32.25;30.80;99172.16;5049278;28;20075;-73
2022/07/30 09:39:37;;;;;;;11.90;6.40;;;;;;;32.28;30.18;99174.03;5059445;28;20560;-71
2022/07/30 09:42:03;;;;;;;;;;;;;;;32.44;30.02;99172.00;5058518;28;20037;-71
2022/07/30 09:44:29;;;;;;;8.27;5.78;;;;;;;32.09;29.96;99173.38;5066489;28;19948;-70
2022/07/30 09:46:57;;;;;;;5.78;5.28;;;;;;;32.60;29.07;99171.56;5068248;28;20052;-72
2022/07/30 09:49:27;;;;;;;10.27;5.75;;;;;;;32.75;27.79;99167.91;5069179;28;20099;-70
2022/07/30 09:51:54;;;;;;;5.95;5.43;;;;;;;32.77;27.70;99168.19;5067807;28;20564;-70
2022/07/30 09:54:20;;;;;;;6.00;5.28;;;;;;;32.73;27.41;99161.81;5067851;28;20029;-71
2022/07/30 09:56:46;;;;;;;6.65;5.15;;;;;;;32.87;26.84;99160.22;5069142;28;20031;-72
2022/07/30 09:59:31;;;;;;;7.22;4.85;;;;;;;33.07;27.22;99148.00;5068313;28;20049;-73
2022/07/30 10:01:57;;;;;;;5.95;5.28;;;;;;;33.32;26.72;99149.44;5068992;28;20755;-73
2022/07/30 10:04:28;;;;;;;12.52;5.80;;;;;;;33.46;26.83;99142.06;5069211;28;20032;-73
2022/07/30 10:06:55;;;;;;;6.45;5.07;;;;;;;33.50;26.55;99136.06;5069088;28;20479;-73
2022/07/30 10:09:43;;;;;;;6.95;5.43;;;;;;;33.71;24.97;99136.09;5067452;28;20116;-74
2022/07/30 10:12:12;;;;;;;5.90;4.93;;;;;;;33.58;24.72;99130.66;5057791;28;20032;-74
2022/07/30 10:14:42;;;;;;;6.18;5.03;;;;;;;33.66;25.34;99120.22;5067832;28;20445;-74
2022/07/30 10:17:07;;;;;;;11.68;5.22;;;;;;;33.85;25.86;99114.97;5068765;28;20029;-73
2022/07/30 10:19:35;;;;;;;7.53;5.28;;;;;;;33.98;25.04;99110.91;5068898;28;20491;-76
2022/07/30 10:22:02;;;;;;;6.75;4.78;;;;;;;34.22;24.89;99119.41;5068907;28;20160;-72
2022/07/30 10:24:29;;;;;;;6.35;5.50;;;;;;;33.95;24.53;99118.50;5068113;28;20088;-73
2022/07/30 10:26:55;;;;;;;5.75;5.13;;;;;;;33.97;24.36;99110.09;5067617;28;20059;-73
2022/07/30 10:29:21;;;;;;;5.57;5.03;;;;;;;33.96;24.55;99108.50;5067539;28;20036;-73
2022/07/30 10:31:49;;;;;;;11.23;5.63;;;;;;;34.17;24.53;99099.84;5068342;28;20021;-75
2022/07/30 10:34:16;;;;;;;8.98;5.03;;;;;;;34.39;24.13;99098.47;5067033;28;20028;-73
2022/07/30 10:36:46;;;;;;;5.63;5.13;;;;;;;34.47;24.01;99093.84;5067376;28;20134;-73
2022/07/30 10:39:14;;;;;;;;;;;;;;;34.64;25.01;99099.84;5069808;28;20036;-75
2022/07/30 10:42:17;;;;;;;7.38;4.80;;;;;;;34.55;23.52;99088.41;5072608;28;19985;-73
2022/07/30 10:45:02;;;;;;;6.43;4.38;;;;;;;34.75;24.47;99096.25;5071136;28;20487;-73
2022/07/30 10:47:29;;;;;;;8.55;4.95;;;;;;;34.75;23.25;99084.63;5069991;28;20025;-73
2022/07/30 10:50:11;;;;;;;8.00;5.22;;;;;;;34.76;24.09;99073.81;5072599;28;20032;-72
2022/07/30 10:52:53;;;;;;;9.70;4.43;;;;;;;34.74;22.29;99077.22;5071050;28;20032;-74
2022/07/30 10:55:21;;;;;;;4.80;4.20;;;;;;;34.69;22.69;99075.91;5072466;28;20479;-74
2022/07/30 10:57:56;;;;;;;5.63;4.32;;;;;;;34.67;22.22;99066.88;5061268;28;20051;-72
2022/07/30 11:00:22;;;;;;;7.07;4.57;;;;;;;34.72;23.19;99068.25;5054059;28;20033;-72
2022/07/30 11:03:14;;;;;;;4.45;4.00;;;;;;;34.74;23.44;99045.28;5070214;28;20043;-74
2022/07/30 11:05:40;;;;;;;7.35;4.15;;;;;;;34.99;22.91;99054.47;5073321;28;20033;-72
2022/07/30 11:08:28;;;;;;;9.70;4.63;;;;;;;35.18;22.35;99051.22;5065411;28;20034;-72
2022/07/30 11:10:54;;;;;;;7.75;4.80;;;;;;;35.02;21.94;99049.75;5058176;28;20458;-72
2022/07/30 11:13:47;;;;;;;8.38;4.63;;;;;;;34.99;23.04;99049.47;5054471;28;20029;-72
2022/07/30 11:16:13;;;;;;;7.30;4.53;;;;;;;35.11;22.25;99050.38;5054719;28;20463;-73
2022/07/30 11:19:02;;;;;;;4.32;3.92;;;;;;;34.86;20.84;99049.88;5060278;28;20032;-74
2022/07/30 11:21:29;;;;;;;10.63;4.07;;;;;;;35.04;20.92;99042.16;5059615;28;20024;-73
2022/07/30 11:23:54;;;;;;;8.68;4.53;;;;;;;35.35;22.26;99033.91;5065307;28;20062;-76
2022/07/30 11:26:38;;;;;;;11.68;4.78;;;;;;;35.45;22.80;99038.19;5060619;28;20024;-78
2022/07/30 11:29:27;;;;;;;8.52;4.95;;;;;;;35.35;21.78;99037.59;5073199;28;20032;-76
2022/07/30 11:31:53;;;;;;;4.88;4.38;;;;;;;35.47;23.20;99026.03;5063338;28;20033;-76